createdAt,value
2024-04-03T00:00:00.459Z,600.00
2024-04-03T00:01:00.558Z,600.00
2024-04-03T00:02:00.684Z,602.00
2024-04-03T00:03:00.810Z,601.00
2024-04-03T00:04:00.895Z,602.00
2024-04-03T00:05:00.997Z,603.00
2024-04-03T00:06:01.104Z,602.00
2024-04-03T00:07:01.231Z,602.00
2024-04-03T00:08:01.334Z,600.00
2024-04-03T00:09:01.426Z,603.00
2024-04-03T00:10:01.532Z,602.00
2024-04-03T00:11:01.634Z,602.00
2024-04-03T00:12:01.784Z,600.00
2024-04-03T00:13:01.868Z,603.00
2024-04-03T00:14:01.951Z,599.00
2024-04-03T00:15:02.076Z,600.00
2024-04-03T00:16:02.163Z,604.00
2024-04-03T00:17:02.255Z,601.00
2024-04-03T00:18:02.353Z,601.00
2024-04-03T00:19:02.458Z,602.00
2024-04-03T00:20:02.578Z,603.00
2024-04-03T00:21:02.677Z,602.00
2024-04-03T00:22:02.783Z,601.00
2024-04-03T00:23:02.896Z,602.00
2024-04-03T00:24:02.978Z,601.00
2024-04-03T00:25:03.095Z,602.00
2024-04-03T00:26:03.181Z,601.00
2024-04-03T00:27:03.295Z,605.00
2024-04-03T00:28:03.401Z,603.00
2024-04-03T00:29:03.483Z,600.00
2024-04-03T00:30:03.608Z,600.00
2024-04-03T00:31:03.699Z,602.00
2024-04-03T00:32:03.791Z,600.00
2024-04-03T00:33:03.887Z,602.00
2024-04-03T00:34:03.991Z,602.00
2024-04-03T00:35:04.087Z,602.00
2024-04-03T00:36:04.179Z,602.00
2024-04-03T00:37:04.275Z,603.00
2024-04-03T00:38:04.365Z,602.00
2024-04-03T00:39:04.467Z,604.00
2024-04-03T00:40:04.567Z,603.00
2024-04-03T00:41:04.674Z,601.00
2024-04-03T00:42:04.813Z,601.00
2024-04-03T00:43:04.875Z,604.00
2024-04-03T00:44:04.985Z,600.00
2024-04-03T00:45:05.075Z,604.00
2024-04-03T00:46:05.164Z,604.00
2024-04-03T00:47:05.266Z,602.00
2024-04-03T00:48:05.375Z,601.00
2024-04-03T00:49:05.465Z,600.00
2024-04-03T00:50:05.575Z,600.00
2024-04-03T00:51:05.675Z,600.00
2024-04-03T00:52:05.791Z,600.00
2024-04-03T00:53:05.875Z,600.00
2024-04-03T00:54:05.974Z,600.00
2024-04-03T00:55:06.050Z,603.00
2024-04-03T00:56:06.152Z,601.00
2024-04-03T00:57:06.234Z,601.00
2024-04-03T00:58:06.361Z,601.00
2024-04-03T00:59:06.424Z,601.00
2024-04-03T01:00:06.507Z,600.00
2024-04-03T01:01:06.605Z,602.00
2024-04-03T01:02:06.680Z,601.00
2024-04-03T01:03:06.795Z,600.00
2024-04-03T01:04:06.892Z,600.00
2024-04-03T01:05:07.000Z,602.00
2024-04-03T01:06:07.082Z,600.00
2024-04-03T01:07:07.207Z,600.00
2024-04-03T01:08:07.276Z,600.00
2024-04-03T01:09:07.370Z,601.00
2024-04-03T01:10:07.472Z,602.00
2024-04-03T01:11:09.223Z,601.00
2024-04-03T01:12:07.753Z,600.00
2024-04-03T01:13:07.739Z,602.00
2024-04-03T01:14:07.748Z,600.00
2024-04-03T01:15:07.776Z,601.00
2024-04-03T01:16:07.805Z,601.00
2024-04-03T01:17:07.856Z,600.00
2024-04-03T01:18:07.874Z,600.00
2024-04-03T01:19:07.912Z,600.00
2024-04-03T01:20:07.923Z,601.00
2024-04-03T01:21:07.969Z,601.00
2024-04-03T01:22:08.066Z,603.00
2024-04-03T01:23:08.188Z,602.00
2024-04-03T01:24:08.279Z,601.00
2024-04-03T01:25:08.382Z,602.00
2024-04-03T01:26:08.474Z,600.00
2024-04-03T01:27:08.586Z,601.00
2024-04-03T01:28:08.690Z,601.00
2024-04-03T01:29:08.802Z,601.00
2024-04-03T01:30:08.931Z,601.00
2024-04-03T01:31:09.041Z,601.00
2024-04-03T01:32:09.132Z,600.00
2024-04-03T01:33:09.262Z,601.00
2024-04-03T01:34:09.384Z,601.00
2024-04-03T01:35:09.482Z,602.00
2024-04-03T01:36:09.591Z,600.00
2024-04-03T01:37:09.696Z,601.00
2024-04-03T01:38:09.879Z,601.00
2024-04-03T01:39:09.890Z,600.00
2024-04-03T01:40:09.990Z,601.00
2024-04-03T01:41:10.103Z,601.00
2024-04-03T01:42:10.192Z,600.00
2024-04-03T01:43:10.305Z,601.00
2024-04-03T01:44:10.405Z,600.00
2024-04-03T01:45:10.494Z,600.00
2024-04-03T01:46:10.587Z,600.00
2024-04-03T01:47:10.726Z,600.00
2024-04-03T01:48:10.806Z,600.00
2024-04-03T01:49:10.912Z,600.00
2024-04-03T01:50:11.019Z,600.00
2024-04-03T01:51:11.133Z,602.00
2024-04-03T01:52:11.266Z,600.00
2024-04-03T01:53:11.344Z,601.00
2024-04-03T01:54:11.454Z,600.00
2024-04-03T01:55:11.576Z,601.00
2024-04-03T01:56:11.677Z,600.00
2024-04-03T01:57:11.784Z,600.00
2024-04-03T01:58:11.899Z,601.00
2024-04-03T01:59:12.016Z,602.00
2024-04-03T02:00:12.115Z,600.00
2024-04-03T02:01:12.220Z,601.00
2024-04-03T02:02:12.328Z,601.00
2024-04-03T02:03:12.431Z,601.00
2024-04-03T02:04:12.543Z,601.00
2024-04-03T02:05:12.634Z,600.00
2024-04-03T02:06:12.735Z,601.00
2024-04-03T02:07:12.847Z,601.00
2024-04-03T02:08:12.954Z,602.00
2024-04-03T02:09:13.064Z,601.00
2024-04-03T02:10:13.138Z,602.00
2024-04-03T02:11:13.252Z,601.00
2024-04-03T02:12:13.352Z,601.00
2024-04-03T02:13:13.454Z,601.00
2024-04-03T02:14:13.545Z,600.00
2024-04-03T02:15:13.649Z,600.00
2024-04-03T02:16:13.759Z,600.00
2024-04-03T02:17:13.868Z,600.00
2024-04-03T02:18:13.971Z,600.00
2024-04-03T02:19:14.074Z,600.00
2024-04-03T02:20:14.191Z,601.00
2024-04-03T02:21:14.276Z,600.00
2024-04-03T02:22:14.382Z,602.00
2024-04-03T02:23:16.728Z,601.00
2024-04-03T02:24:20.495Z,602.00
2024-04-03T02:25:15.512Z,603.00
2024-04-03T02:26:14.507Z,603.00
2024-04-03T02:27:14.522Z,603.00
2024-04-03T02:28:14.517Z,603.00
2024-04-03T02:29:14.522Z,599.00
2024-04-03T02:30:14.533Z,602.00
2024-04-03T02:31:14.526Z,600.00
2024-04-03T02:32:14.519Z,600.00
2024-04-03T02:33:14.534Z,601.00
2024-04-03T02:34:14.563Z,600.00
2024-04-03T02:35:14.575Z,600.00
2024-04-03T02:36:14.686Z,600.00
2024-04-03T02:37:14.793Z,602.00
2024-04-03T02:38:14.902Z,601.00
2024-04-03T02:39:15.010Z,604.00
2024-04-03T02:40:15.123Z,601.00
2024-04-03T02:41:15.235Z,600.00
2024-04-03T02:42:15.362Z,601.00
2024-04-03T02:43:15.457Z,601.00
2024-04-03T02:44:15.581Z,602.00
2024-04-03T02:45:15.694Z,600.00
2024-04-03T02:46:15.799Z,603.00
2024-04-03T02:47:15.914Z,601.00
2024-04-03T02:48:16.023Z,600.00
2024-04-03T02:49:16.134Z,600.00
2024-04-03T02:50:16.273Z,600.00
2024-04-03T02:51:16.349Z,600.00
2024-04-03T02:52:16.456Z,602.00
2024-04-03T02:53:16.575Z,600.00
2024-04-03T02:54:16.672Z,602.00
2024-04-03T02:55:16.787Z,600.00
2024-04-03T02:56:16.910Z,600.00
2024-04-03T02:57:17.024Z,600.00
2024-04-03T02:58:17.115Z,600.00
2024-04-03T02:59:17.223Z,600.00
2024-04-03T03:00:17.336Z,601.00
2024-04-03T03:01:17.440Z,600.00
2024-04-03T03:02:17.577Z,600.00
2024-04-03T03:03:17.666Z,602.00
2024-04-03T03:04:17.776Z,602.00
2024-04-03T03:05:17.883Z,602.00
2024-04-03T03:06:18.008Z,601.00
2024-04-03T03:07:18.133Z,601.00
2024-04-03T03:08:18.221Z,601.00
2024-04-03T03:09:18.345Z,602.00
2024-04-03T03:10:18.465Z,601.00
2024-04-03T03:11:18.574Z,600.00
2024-04-03T03:12:18.670Z,602.00
2024-04-03T03:13:18.791Z,602.00
2024-04-03T03:14:18.906Z,600.00
2024-04-03T03:15:19.041Z,602.00
2024-04-03T03:16:19.146Z,601.00
2024-04-03T03:17:19.290Z,603.00
2024-04-03T03:18:27.986Z,602.00
2024-04-03T03:19:19.539Z,602.00
2024-04-03T03:20:19.583Z,603.00
2024-04-03T03:21:19.593Z,603.00
2024-04-03T03:22:19.641Z,603.00
2024-04-03T03:23:19.641Z,602.00
2024-04-03T03:24:19.694Z,603.00
2024-04-03T03:25:19.728Z,601.00
2024-04-03T03:26:19.762Z,600.00
2024-04-03T03:27:19.802Z,601.00
2024-04-03T03:28:19.848Z,601.00
2024-04-03T03:29:19.964Z,604.00
2024-04-03T03:30:20.072Z,602.00
2024-04-03T03:31:20.206Z,603.00
2024-04-03T03:32:20.315Z,601.00
2024-04-03T03:33:20.425Z,600.00
2024-04-03T03:34:20.534Z,601.00
2024-04-03T03:35:20.656Z,600.00
2024-04-03T03:36:20.752Z,603.00
2024-04-03T03:37:20.869Z,603.00
2024-04-03T03:38:21.004Z,600.00
2024-04-03T03:39:21.115Z,603.00
2024-04-03T03:40:21.195Z,600.00
2024-04-03T03:41:21.301Z,600.00
2024-04-03T03:42:21.408Z,603.00
2024-04-03T03:43:21.517Z,600.00
2024-04-03T03:44:21.631Z,600.00
2024-04-03T03:45:21.737Z,601.00
2024-04-03T03:46:21.844Z,602.00
2024-04-03T03:47:22.021Z,602.00
2024-04-03T03:48:22.079Z,600.00
2024-04-03T03:49:22.186Z,601.00
2024-04-03T03:50:22.277Z,600.00
2024-04-03T03:51:22.396Z,600.00
2024-04-03T03:52:22.508Z,602.00
2024-04-03T03:53:22.590Z,602.00
2024-04-03T03:54:22.720Z,600.00
2024-04-03T03:55:22.825Z,600.00
2024-04-03T03:56:29.123Z,603.00
2024-04-03T03:57:23.947Z,603.00
2024-04-03T03:58:22.938Z,602.00
2024-04-03T03:59:22.932Z,602.00
2024-04-03T04:00:22.934Z,603.00
2024-04-03T04:01:22.939Z,599.00
2024-04-03T04:02:22.971Z,600.00
2024-04-03T04:03:22.957Z,600.00
2024-04-03T04:04:22.958Z,601.00
2024-04-03T04:05:22.969Z,604.00
2024-04-03T04:06:23.005Z,601.00
2024-04-03T04:07:23.114Z,602.00
2024-04-03T04:08:23.223Z,602.00
2024-04-03T04:09:23.326Z,600.00
2024-04-03T04:10:23.441Z,602.00
2024-04-03T04:11:23.552Z,602.00
2024-04-03T04:12:23.648Z,601.00
2024-04-03T04:13:23.761Z,601.00
2024-04-03T04:14:23.850Z,603.00
2024-04-03T04:15:23.962Z,601.00
2024-04-03T04:16:24.038Z,601.00
2024-04-03T04:17:24.174Z,603.00
2024-04-03T04:18:24.251Z,600.00
2024-04-03T04:19:24.351Z,601.00
2024-04-03T04:20:24.458Z,602.00
2024-04-03T04:21:24.542Z,602.00
2024-04-03T04:22:24.653Z,603.00
2024-04-03T04:23:24.758Z,603.00
2024-04-03T04:24:24.839Z,601.00
2024-04-03T04:25:24.983Z,603.00
2024-04-03T04:26:25.048Z,601.00
2024-04-03T04:27:25.166Z,602.00
2024-04-03T04:28:25.285Z,600.00
2024-04-03T04:29:25.410Z,601.00
2024-04-03T04:30:25.483Z,603.00
2024-04-03T04:31:25.565Z,601.00
2024-04-03T04:32:25.679Z,601.00
2024-04-03T04:33:25.808Z,602.00
2024-04-03T04:34:25.882Z,601.00
2024-04-03T04:35:25.996Z,600.00
2024-04-03T04:36:26.128Z,600.00
2024-04-03T04:37:26.220Z,599.00
2024-04-03T04:38:26.337Z,601.00
2024-04-03T04:39:26.440Z,604.00
2024-04-03T04:40:26.545Z,601.00
2024-04-03T04:41:26.622Z,601.00
2024-04-03T04:42:26.720Z,600.00
2024-04-03T04:43:26.847Z,602.00
2024-04-03T04:44:26.909Z,600.00
2024-04-03T04:45:27.058Z,603.00
2024-04-03T04:46:27.096Z,601.00
2024-04-03T04:47:27.238Z,601.00
2024-04-03T04:48:27.310Z,605.00
2024-04-03T04:49:27.645Z,602.00
2024-04-03T04:50:27.488Z,602.00
2024-04-03T04:51:34.838Z,600.00
2024-04-03T04:52:34.816Z,600.00
2024-04-03T04:53:34.865Z,600.00
2024-04-03T04:54:34.863Z,600.00
2024-04-03T04:55:34.846Z,600.00
2024-04-03T04:56:34.915Z,600.00
2024-04-03T04:57:34.844Z,601.00
2024-04-03T04:58:34.934Z,600.00
2024-04-03T04:59:35.028Z,600.00
2024-04-03T05:00:35.120Z,600.00
2024-04-03T05:01:35.232Z,600.00
2024-04-03T05:02:35.395Z,605.00
2024-04-03T05:03:35.435Z,600.00
2024-04-03T05:04:35.542Z,601.00
2024-04-03T05:05:35.627Z,601.00
2024-04-03T05:06:35.741Z,600.00
2024-04-03T05:07:35.835Z,601.00
2024-04-03T05:08:35.976Z,602.00
2024-04-03T05:09:36.055Z,600.00
2024-04-03T05:10:36.163Z,601.00
2024-04-03T05:11:36.267Z,601.00
2024-04-03T05:12:36.379Z,600.00
2024-04-03T05:13:36.490Z,602.00
2024-04-03T05:14:36.625Z,604.00
2024-04-03T05:15:36.692Z,604.00
2024-04-03T05:16:36.820Z,607.00
2024-04-03T05:17:36.902Z,605.00
2024-04-03T05:18:37.015Z,606.00
2024-04-03T05:19:37.128Z,607.00
2024-04-03T05:20:37.235Z,608.00
2024-04-03T05:21:37.341Z,607.00
2024-04-03T05:22:37.475Z,609.00
2024-04-03T05:23:37.583Z,609.00
2024-04-03T05:24:37.670Z,606.00
2024-04-03T05:25:37.779Z,608.00
2024-04-03T05:26:37.858Z,608.00
2024-04-03T05:27:37.956Z,608.00
2024-04-03T05:28:38.078Z,607.00
2024-04-03T05:29:38.168Z,609.00
2024-04-03T05:30:38.297Z,606.00
2024-04-03T05:31:38.378Z,606.00
2024-04-03T05:32:38.525Z,606.00
2024-04-03T05:33:38.568Z,606.00
2024-04-03T05:34:38.687Z,609.00
2024-04-03T05:35:38.790Z,606.00
2024-04-03T05:36:38.902Z,606.00
2024-04-03T05:37:39.008Z,606.00
2024-04-03T05:38:39.082Z,607.00
2024-04-03T05:39:39.162Z,605.00
2024-04-03T05:40:39.348Z,607.00
2024-04-03T05:41:39.275Z,609.00
2024-04-03T05:42:39.313Z,610.00
2024-04-03T05:43:39.332Z,614.00
2024-04-03T05:44:39.391Z,616.00
2024-04-03T05:45:39.415Z,618.00
2024-04-03T05:46:39.486Z,621.00
2024-04-03T05:47:39.519Z,624.00
2024-04-03T05:48:39.623Z,603.00
2024-04-03T05:49:39.602Z,603.00
2024-04-03T05:50:39.643Z,600.00
2024-04-03T05:51:39.689Z,600.00
2024-04-03T05:52:39.720Z,601.00
2024-04-03T05:53:39.735Z,601.00
2024-04-03T05:54:39.775Z,600.00
2024-04-03T05:55:39.790Z,600.00
2024-04-03T05:56:39.860Z,602.00
2024-04-03T05:57:39.945Z,604.00
2024-04-03T05:58:40.017Z,600.00
2024-04-03T05:59:40.050Z,604.00
2024-04-03T06:00:40.118Z,602.00
2024-04-03T06:01:40.190Z,606.00
2024-04-03T06:02:40.251Z,609.00
2024-04-03T06:03:40.354Z,610.00
2024-04-03T06:04:40.401Z,618.00
2024-04-03T06:05:40.496Z,627.00
2024-04-03T06:06:40.655Z,625.00
2024-04-03T06:07:40.745Z,632.00
2024-04-03T06:08:40.845Z,634.00
2024-04-03T06:09:41.983Z,638.00
2024-04-03T06:10:41.068Z,646.00
2024-04-03T06:11:41.164Z,652.00
2024-04-03T06:12:41.257Z,660.00
2024-04-03T06:13:41.345Z,668.00
2024-04-03T06:14:41.479Z,690.00
2024-04-03T06:15:41.520Z,714.00
2024-04-03T06:16:41.598Z,733.00
2024-04-03T06:17:41.698Z,750.00
2024-04-03T06:18:41.746Z,770.00
2024-04-03T06:19:41.832Z,789.00
2024-04-03T06:20:41.899Z,800.00
2024-04-03T06:21:41.999Z,825.00
2024-04-03T06:22:42.092Z,847.00
2024-04-03T06:23:42.163Z,854.00
2024-04-03T06:24:42.261Z,871.00
2024-04-03T06:25:42.360Z,884.00
2024-04-03T06:26:42.427Z,907.00
2024-04-03T06:27:42.491Z,922.00
2024-04-03T06:28:42.597Z,936.00
2024-04-03T06:29:42.646Z,965.00
2024-04-03T06:30:42.717Z,973.00
2024-04-03T06:31:42.788Z,996.00
2024-04-03T06:32:42.920Z,1012.00
2024-04-03T06:33:42.918Z,1031.00
2024-04-03T06:34:42.994Z,1044.00
2024-04-03T06:35:43.055Z,1072.00
2024-04-03T06:36:43.193Z,1092.00
2024-04-03T06:37:43.214Z,1106.00
2024-04-03T06:38:43.291Z,1120.00
2024-04-03T06:39:43.405Z,1145.00
2024-04-03T06:40:43.479Z,1175.00
2024-04-03T06:41:43.592Z,1182.00
2024-04-03T06:42:43.717Z,1215.00
2024-04-03T06:43:43.753Z,1216.00
2024-04-03T06:44:43.835Z,1238.00
2024-04-03T06:45:43.918Z,1250.00
2024-04-03T06:46:44.012Z,1260.00
2024-04-03T06:47:44.104Z,1272.00
2024-04-03T06:48:44.176Z,1292.00
2024-04-03T06:49:44.279Z,1310.00
2024-04-03T06:50:44.355Z,1322.00
2024-04-03T06:51:44.472Z,1345.00
2024-04-03T06:52:44.561Z,1348.00
2024-04-03T06:53:44.627Z,1362.00
2024-04-03T06:54:44.769Z,1401.00
2024-04-03T06:55:44.814Z,1413.00
2024-04-03T06:56:44.895Z,1411.00
2024-04-03T06:57:44.980Z,1422.00
2024-04-03T06:58:45.983Z,1368.00
2024-04-03T06:59:45.181Z,1239.00
2024-04-03T07:00:45.216Z,1169.00
2024-04-03T07:01:45.287Z,1078.00
2024-04-03T07:02:45.392Z,1018.00
2024-04-03T07:03:45.462Z,934.00
2024-04-03T07:04:45.550Z,886.00
2024-04-03T07:05:45.643Z,817.00
2024-04-03T07:06:45.722Z,779.00
2024-04-03T07:07:45.833Z,731.00
2024-04-03T07:08:45.924Z,705.00
2024-04-03T07:09:46.018Z,705.00
2024-04-03T07:10:46.149Z,713.00
2024-04-03T07:11:46.243Z,768.00
2024-04-03T07:12:46.321Z,803.00
2024-04-03T07:13:46.396Z,826.00
2024-04-03T07:14:46.465Z,842.00
2024-04-03T07:15:46.548Z,857.00
2024-04-03T07:16:46.614Z,858.00
2024-04-03T07:17:46.728Z,854.00
2024-04-03T07:18:47.472Z,840.00
2024-04-03T07:19:46.904Z,815.00
2024-04-03T07:20:47.010Z,806.00
2024-04-03T07:21:47.084Z,807.00
2024-04-03T07:22:47.165Z,798.00
2024-04-03T07:23:47.271Z,787.00
2024-04-03T07:24:47.400Z,785.00
2024-04-03T07:25:47.440Z,781.00
2024-04-03T07:26:47.536Z,788.00
2024-04-03T07:27:50.281Z,784.00
2024-04-03T07:28:47.978Z,797.00
2024-04-03T07:29:47.579Z,795.00
2024-04-03T07:30:47.625Z,795.00
2024-04-03T07:31:47.579Z,796.00
2024-04-03T07:32:47.573Z,799.00
2024-04-03T07:33:47.576Z,805.00
2024-04-03T07:34:47.581Z,813.00
2024-04-03T07:35:47.589Z,810.00
2024-04-03T07:36:47.589Z,822.00
2024-04-03T07:37:47.575Z,839.00
2024-04-03T07:38:47.578Z,890.00
2024-04-03T07:39:47.597Z,913.00
2024-04-03T07:40:47.599Z,907.00
2024-04-03T07:41:47.598Z,912.00
2024-04-03T07:42:47.609Z,909.00
2024-04-03T07:43:47.587Z,914.00
2024-04-03T07:44:49.777Z,911.00
2024-04-03T07:45:47.589Z,911.00
2024-04-03T07:46:47.633Z,915.00
2024-04-03T07:47:47.604Z,917.00
2024-04-03T07:48:47.612Z,925.00
2024-04-03T07:49:47.621Z,929.00
2024-04-03T07:50:47.625Z,932.00
2024-04-03T07:51:47.605Z,940.00
2024-04-03T07:52:47.617Z,937.00
2024-04-03T07:53:47.615Z,945.00
2024-04-03T07:54:47.625Z,943.00
2024-04-03T07:55:47.628Z,934.00
2024-04-03T07:56:47.634Z,950.00
2024-04-03T07:57:47.612Z,939.00
2024-04-03T07:58:47.695Z,948.00
2024-04-03T07:59:47.620Z,951.00
2024-04-03T08:00:47.638Z,957.00
2024-04-03T08:01:47.619Z,946.00
2024-04-03T08:02:47.617Z,952.00
2024-04-03T08:03:47.702Z,955.00
2024-04-03T08:04:47.624Z,959.00
2024-04-03T08:05:47.639Z,956.00
2024-04-03T08:06:47.648Z,953.00
2024-04-03T08:07:47.624Z,958.00
2024-04-03T08:08:47.683Z,961.00
2024-04-03T08:09:47.683Z,954.00
2024-04-03T08:10:47.763Z,964.00
2024-04-03T08:11:47.707Z,950.00
2024-04-03T08:12:47.713Z,951.00
2024-04-03T08:13:47.691Z,948.00
2024-04-03T08:14:47.696Z,958.00
2024-04-03T08:15:48.030Z,949.00
2024-04-03T08:16:47.704Z,950.00
2024-04-03T08:17:47.706Z,948.00
2024-04-03T08:18:47.725Z,951.00
2024-04-03T08:19:47.717Z,949.00
2024-04-03T08:20:47.719Z,944.00
2024-04-03T08:21:47.715Z,951.00
2024-04-03T08:22:47.723Z,943.00
2024-04-03T08:23:47.723Z,955.00
2024-04-03T08:24:47.713Z,940.00
2024-04-03T08:25:47.722Z,956.00
2024-04-03T08:26:47.704Z,955.00
2024-04-03T08:27:47.780Z,944.00
2024-04-03T08:28:47.846Z,940.00
2024-04-03T08:29:47.929Z,950.00
2024-04-03T08:30:47.992Z,946.00
2024-04-03T08:31:48.078Z,943.00
2024-04-03T08:32:48.146Z,943.00
2024-04-03T08:34:48.301Z,945.00
2024-04-03T08:35:48.378Z,935.00
2024-04-03T08:36:48.473Z,936.00
2024-04-03T08:37:57.091Z,938.00
2024-04-03T08:38:49.527Z,938.00
2024-04-03T08:39:48.538Z,935.00
2024-04-03T08:40:48.516Z,938.00
2024-04-03T08:41:48.526Z,935.00
2024-04-03T08:42:48.529Z,928.00
2024-04-03T08:43:48.565Z,936.00
2024-04-03T08:44:48.535Z,929.00
2024-04-03T08:45:48.570Z,937.00
2024-04-03T08:46:48.586Z,929.00
2024-04-03T08:47:48.569Z,934.00
2024-04-03T08:48:49.015Z,920.00
2024-04-03T08:49:48.581Z,927.00
2024-04-03T08:50:48.579Z,932.00
2024-04-03T08:51:48.590Z,948.00
2024-04-03T08:52:48.599Z,959.00
2024-04-03T08:53:48.602Z,967.00
2024-04-03T08:54:48.610Z,988.00
2024-04-03T08:55:48.591Z,997.00
2024-04-03T08:56:48.588Z,1041.00
2024-04-03T08:57:48.587Z,1042.00
2024-04-03T08:58:48.575Z,1057.00
2024-04-03T08:59:48.590Z,1064.00
2024-04-03T09:00:48.635Z,1081.00
2024-04-03T09:01:48.600Z,1078.00
2024-04-03T09:02:48.595Z,1101.00
2024-04-03T09:03:48.658Z,1093.00
2024-04-03T09:04:48.683Z,1091.00
2024-04-03T09:05:48.784Z,1083.00
2024-04-03T09:06:48.860Z,1087.00
2024-04-03T09:07:55.866Z,1078.00
2024-04-03T09:08:49.958Z,1076.00
2024-04-03T09:09:48.967Z,1068.00
2024-04-03T09:10:52.443Z,1046.00
2024-04-03T09:11:48.970Z,1045.00
2024-04-03T09:12:48.961Z,992.00
2024-04-03T09:13:48.995Z,958.00
2024-04-03T09:14:48.988Z,905.00
2024-04-03T09:15:48.993Z,864.00
2024-04-03T09:16:56.090Z,806.00
2024-04-03T09:17:50.005Z,784.00
2024-04-03T09:18:48.984Z,725.00
2024-04-03T09:19:48.983Z,698.00
2024-04-03T09:20:50.669Z,659.00
2024-04-03T09:21:48.997Z,640.00
2024-04-03T09:22:48.981Z,630.00
2024-04-03T09:23:48.981Z,612.00
2024-04-03T09:24:48.980Z,606.00
2024-04-03T09:25:56.332Z,600.00
2024-04-03T09:26:56.309Z,600.00
2024-04-03T09:27:57.281Z,600.00
2024-04-03T09:28:56.281Z,600.00
2024-04-03T09:29:56.310Z,600.00
2024-04-03T09:30:56.301Z,600.00
2024-04-03T09:31:56.278Z,600.00
2024-04-03T09:32:56.283Z,604.00
2024-04-03T09:33:56.285Z,602.00
2024-04-03T09:34:56.300Z,603.00
2024-04-03T09:35:56.303Z,600.00
2024-04-03T09:36:56.373Z,599.00
2024-04-03T09:37:56.459Z,601.00
2024-04-03T09:38:56.534Z,601.00
2024-04-03T09:39:56.598Z,601.00
2024-04-03T09:40:56.707Z,607.00
2024-04-03T09:41:56.768Z,617.00
2024-04-03T09:42:56.832Z,625.00
2024-04-03T09:43:56.899Z,630.00
2024-04-03T09:44:56.971Z,635.00
2024-04-03T09:45:57.062Z,642.00
2024-04-03T09:46:57.168Z,649.00
2024-04-03T09:47:57.225Z,656.00
2024-04-03T09:48:57.369Z,654.00
2024-04-03T09:49:57.443Z,644.00
2024-04-03T09:50:57.534Z,631.00
2024-04-03T09:51:57.608Z,629.00
2024-04-03T09:52:57.673Z,622.00
2024-04-03T09:53:57.763Z,620.00
2024-04-03T09:54:57.820Z,612.00
2024-04-03T09:55:57.908Z,603.00
2024-04-03T09:56:57.979Z,603.00
2024-04-03T09:57:58.195Z,600.00
2024-04-03T09:58:58.157Z,601.00
2024-04-03T09:59:58.207Z,601.00
2024-04-03T10:00:58.275Z,600.00
2024-04-03T10:01:58.353Z,600.00
2024-04-03T10:02:58.456Z,602.00
2024-04-03T10:03:58.528Z,599.00
2024-04-03T10:04:58.603Z,603.00
2024-04-03T10:05:58.702Z,600.00
2024-04-03T10:06:58.768Z,602.00
2024-04-03T10:07:58.810Z,602.00
2024-04-03T10:08:58.924Z,604.00
2024-04-03T10:09:59.002Z,605.00
2024-04-03T10:10:59.064Z,600.00
2024-04-03T10:11:59.132Z,599.00
2024-04-03T10:12:59.223Z,603.00
2024-04-03T10:13:59.762Z,603.00
2024-04-03T10:14:59.333Z,604.00
2024-04-03T10:15:59.336Z,601.00
2024-04-03T10:16:59.384Z,603.00
2024-04-03T10:17:59.385Z,601.00
2024-04-03T10:18:59.424Z,602.00
2024-04-03T10:19:59.436Z,600.00
2024-04-03T10:20:59.473Z,601.00
2024-04-03T10:21:59.476Z,604.00
2024-04-03T10:22:59.553Z,602.00
2024-04-03T10:23:59.569Z,601.00
2024-04-03T10:25:00.574Z,602.00
2024-04-03T10:25:59.535Z,602.00
2024-04-03T10:26:59.537Z,599.00
2024-04-03T10:27:59.550Z,598.00
2024-04-03T10:28:59.549Z,596.00
2024-04-03T10:29:59.553Z,603.00
2024-04-03T10:30:59.570Z,602.00
2024-04-03T10:31:59.566Z,605.00
2024-04-03T10:32:59.582Z,613.00
2024-04-03T10:33:59.568Z,613.00
2024-04-03T10:34:59.571Z,617.00
2024-04-03T10:35:59.641Z,619.00
2024-04-03T10:36:59.752Z,622.00
2024-04-03T10:37:59.835Z,623.00
2024-04-03T10:38:59.955Z,625.00
2024-04-03T10:40:00.052Z,624.00
2024-04-03T10:41:00.145Z,622.00
2024-04-03T10:42:00.243Z,619.00
2024-04-03T10:43:00.345Z,624.00
2024-04-03T10:44:00.419Z,632.00
2024-04-03T10:45:00.521Z,636.00
2024-04-03T10:46:00.603Z,644.00
2024-04-03T10:47:00.695Z,655.00
2024-04-03T10:48:00.749Z,662.00
2024-04-03T10:49:00.850Z,661.00
2024-04-03T10:50:00.922Z,674.00
2024-04-03T10:51:01.004Z,681.00
2024-04-03T10:52:01.098Z,692.00
2024-04-03T10:53:01.152Z,711.00
2024-04-03T10:54:01.252Z,726.00
2024-04-03T10:55:01.327Z,751.00
2024-04-03T10:56:01.381Z,750.00
2024-04-03T10:57:01.453Z,774.00
2024-04-03T10:58:01.529Z,789.00
2024-04-03T10:59:01.625Z,805.00
2024-04-03T11:00:01.701Z,821.00
2024-04-03T11:01:01.797Z,841.00
2024-04-03T11:02:01.899Z,854.00
2024-04-03T11:03:02.000Z,872.00
2024-04-03T11:04:02.078Z,873.00
2024-04-03T11:05:02.187Z,909.00
2024-04-03T11:06:02.268Z,926.00
2024-04-03T11:07:02.346Z,940.00
2024-04-03T11:08:02.461Z,966.00
2024-04-03T11:09:07.570Z,976.00
2024-04-03T11:10:02.536Z,977.00
2024-04-03T11:11:02.548Z,984.00
2024-04-03T11:12:02.562Z,1001.00
2024-04-03T11:13:02.554Z,1030.00
2024-04-03T11:14:02.556Z,1080.00
2024-04-03T11:15:02.545Z,1106.00
2024-04-03T11:16:02.563Z,1117.00
2024-04-03T11:17:02.623Z,1141.00
2024-04-03T11:18:02.791Z,1151.00
2024-04-03T11:19:02.873Z,1160.00
2024-04-03T11:20:02.954Z,1178.00
2024-04-03T11:21:02.984Z,1190.00
2024-04-03T11:22:03.075Z,1221.00
2024-04-03T11:23:03.156Z,1234.00
2024-04-03T11:24:03.271Z,1258.00
2024-04-03T11:25:03.369Z,1281.00
2024-04-03T11:26:03.487Z,1301.00
2024-04-03T11:27:03.530Z,1301.00
2024-04-03T11:28:03.629Z,1332.00
2024-04-03T11:29:03.714Z,1351.00
2024-04-03T11:30:03.820Z,1374.00
2024-04-03T11:31:03.882Z,1394.00
2024-04-03T11:32:03.979Z,1414.00
2024-04-03T11:33:04.123Z,1437.00
2024-04-03T11:34:04.173Z,1456.00
2024-04-03T11:35:04.306Z,1469.00
2024-04-03T11:36:04.347Z,1482.00
2024-04-03T11:37:04.440Z,1521.00
2024-04-03T11:38:04.548Z,1564.00
2024-04-03T11:39:04.669Z,1614.00
2024-04-03T11:40:04.800Z,1627.00
2024-04-03T11:41:04.862Z,1648.00
2024-04-03T11:42:05.018Z,1641.00
2024-04-03T11:43:05.044Z,1664.00
2024-04-03T11:44:05.173Z,1676.00
2024-04-03T11:45:05.264Z,1668.00
2024-04-03T11:46:13.882Z,1671.00
2024-04-03T11:47:06.366Z,1672.00
2024-04-03T11:48:05.378Z,1675.00
2024-04-03T11:49:05.386Z,1683.00
2024-04-03T11:50:05.395Z,1695.00
2024-04-03T11:51:05.384Z,1715.00
2024-04-03T11:52:05.374Z,1711.00
2024-04-03T11:53:05.396Z,1722.00
2024-04-03T11:54:05.392Z,1708.00
2024-04-03T11:55:05.479Z,1712.00
2024-04-03T11:56:05.578Z,1710.00
2024-04-03T11:57:05.616Z,1716.00
2024-04-03T11:58:05.711Z,1712.00
2024-04-03T11:59:05.787Z,1710.00
2024-04-03T12:00:05.894Z,1722.00
2024-04-03T12:01:05.961Z,1718.00
2024-04-03T12:02:06.040Z,1726.00
2024-04-03T12:03:06.149Z,1716.00
2024-04-03T12:04:06.222Z,1708.00
2024-04-03T12:05:06.289Z,1717.00
2024-04-03T12:06:06.351Z,1707.00
2024-04-03T12:07:06.380Z,1711.00
2024-04-03T12:08:06.439Z,1706.00
2024-04-03T12:09:06.489Z,1708.00
2024-04-03T12:10:06.578Z,1694.00
2024-04-03T12:11:06.633Z,1699.00
2024-04-03T12:12:06.676Z,1703.00
2024-04-03T12:13:06.758Z,1697.00
2024-04-03T12:14:06.825Z,1702.00
2024-04-03T12:15:06.909Z,1698.00
2024-04-03T12:16:07.027Z,1679.00
2024-04-03T12:17:07.064Z,1685.00
2024-04-03T12:18:07.119Z,1681.00
2024-04-03T12:19:07.164Z,1674.00
2024-04-03T12:20:07.212Z,1670.00
2024-04-03T12:21:07.293Z,1672.00
2024-04-03T12:22:07.374Z,1676.00
2024-04-03T12:23:07.430Z,1675.00
2024-04-03T12:24:07.484Z,1675.00
2024-04-03T12:25:07.557Z,1657.00
2024-04-03T12:26:07.625Z,1649.00